CAY833 MUHA-MWCR
Flight info
| Callsign | CAY833 |
|---|---|
| Flight time | 0h 47m |
| Altitude | 29000 |
| Route | DUTAN5B DUTAN J5 UCL UG448 ATUVI GORAN3 |
| Aircraft | B38M/M-SDE1FGHILORVWXY/HB1 |
Departure
| Time | 2026-05-05 16:01 |
|---|---|
| Airport | José Martí International Airport (MUHA) |
Arrival
| Time | 2026-05-05 16:48 |
|---|---|
| Airport | Owen Roberts International Airport (MWCR) |
| Time | Latitude | Longitude | Altitude | Speed | Heading |
|---|---|---|---|---|---|
| 2026-05-05 15:35 | 22.99696 | -82.40640 | 222 ft | 0 kts | 236° |
| 2026-05-05 15:54 | 22.99704 | -82.40627 | 221 ft | 4 kts | 233° |
| 2026-05-05 15:54 | 22.99721 | -82.40604 | 220 ft | 4 kts | 225° |
| 2026-05-05 15:54 | 22.99742 | -82.40587 | 220 ft | 4 kts | 201° |
| 2026-05-05 15:55 | 22.99762 | -82.40587 | 219 ft | 2 kts | 145° |
| 2026-05-05 15:55 | 22.99763 | -82.40587 | 219 ft | 0 kts | 144° |
| 2026-05-05 15:57 | 22.99762 | -82.40586 | 219 ft | 1 kts | 145° |
| 2026-05-05 15:57 | 22.99744 | -82.40573 | 219 ft | 7 kts | 144° |
| 2026-05-05 15:58 | 22.99683 | -82.40529 | 219 ft | 14 kts | 156° |
| 2026-05-05 15:58 | 22.99579 | -82.40475 | 219 ft | 19 kts | 145° |
| 2026-05-05 15:58 | 22.99488 | -82.40371 | 220 ft | 19 kts | 85° |
| 2026-05-05 15:58 | 22.99571 | -82.40251 | 219 ft | 22 kts | 57° |
| 2026-05-05 15:59 | 22.99664 | -82.40105 | 219 ft | 25 kts | 56° |
| 2026-05-05 15:59 | 22.99774 | -82.39932 | 218 ft | 30 kts | 58° |
| 2026-05-05 15:59 | 22.99910 | -82.39730 | 223 ft | 36 kts | 56° |
| 2026-05-05 15:59 | 23.00056 | -82.39507 | 222 ft | 36 kts | 56° |
| 2026-05-05 16:00 | 23.00017 | -82.39370 | 220 ft | 28 kts | 144° |
| 2026-05-05 16:00 | 22.99876 | -82.39456 | 218 ft | 38 kts | 235° |
| 2026-05-05 16:00 | 22.99706 | -82.39710 | 218 ft | 86 kts | 234° |
| 2026-05-05 16:00 | 22.99228 | -82.40431 | 222 ft | 147 kts | 233° |
| 2026-05-05 16:01 | 22.98560 | -82.41435 | 493 ft | 172 kts | 237° |
| 2026-05-05 16:01 | 22.97904 | -82.42527 | 1206 ft | 171 kts | 237° |
| 2026-05-05 16:01 | 22.97192 | -82.43582 | 1895 ft | 177 kts | 236° |
| 2026-05-05 16:01 | 22.95992 | -82.44965 | 2514 ft | 210 kts | 211° |
| 2026-05-05 16:02 | 22.94479 | -82.45245 | 2890 ft | 240 kts | 169° |
| 2026-05-05 16:02 | 22.93403 | -82.44761 | 3230 ft | 258 kts | 145° |
| 2026-05-05 16:02 | 22.92024 | -82.43425 | 3906 ft | 273 kts | 141° |
| 2026-05-05 16:02 | 22.90523 | -82.42170 | 4804 ft | 276 kts | 144° |
| 2026-05-05 16:03 | 22.88987 | -82.40895 | 5744 ft | 280 kts | 144° |
| 2026-05-05 16:03 | 22.87428 | -82.39595 | 6640 ft | 284 kts | 144° |
| 2026-05-05 16:03 | 22.85850 | -82.38275 | 7471 ft | 289 kts | 144° |
| 2026-05-05 16:03 | 22.84249 | -82.36933 | 8290 ft | 293 kts | 144° |
| 2026-05-05 16:04 | 22.82625 | -82.35570 | 9129 ft | 298 kts | 144° |
| 2026-05-05 16:04 | 22.80976 | -82.34187 | 9970 ft | 302 kts | 144° |
| 2026-05-05 16:04 | 22.79284 | -82.32769 | 10575 ft | 315 kts | 144° |
| 2026-05-05 16:04 | 22.77499 | -82.31279 | 10971 ft | 332 kts | 144° |
| 2026-05-05 16:05 | 22.75636 | -82.29720 | 11509 ft | 343 kts | 144° |
| 2026-05-05 16:05 | 22.73746 | -82.28135 | 12309 ft | 345 kts | 144° |
| 2026-05-05 16:05 | 22.71835 | -82.26530 | 13008 ft | 350 kts | 144° |
| 2026-05-05 16:05 | 22.69899 | -82.24905 | 13779 ft | 354 kts | 144° |
| 2026-05-05 16:06 | 22.67944 | -82.23263 | 14415 ft | 359 kts | 144° |
| 2026-05-05 16:06 | 22.65845 | -82.21779 | 14997 ft | 363 kts | 152° |
| 2026-05-05 16:06 | 22.63646 | -82.20390 | 15588 ft | 369 kts | 151° |
| 2026-05-05 16:06 | 22.61426 | -82.18961 | 16174 ft | 374 kts | 150° |
| 2026-05-05 16:07 | 22.59171 | -82.17493 | 16748 ft | 380 kts | 150° |
| 2026-05-05 16:07 | 22.56899 | -82.16007 | 17322 ft | 384 kts | 149° |
| 2026-05-05 16:07 | 22.54598 | -82.14499 | 17874 ft | 389 kts | 149° |
| 2026-05-05 16:07 | 22.52292 | -82.12988 | 18396 ft | 395 kts | 149° |
| 2026-05-05 16:08 | 22.49931 | -82.11441 | 18885 ft | 398 kts | 149° |
| 2026-05-05 16:08 | 22.47557 | -82.09886 | 19414 ft | 400 kts | 149° |
| 2026-05-05 16:08 | 22.45168 | -82.08321 | 19919 ft | 403 kts | 150° |
| 2026-05-05 16:08 | 22.42761 | -82.06745 | 20425 ft | 405 kts | 150° |
| 2026-05-05 16:09 | 22.40345 | -82.05163 | 20921 ft | 408 kts | 150° |
| 2026-05-05 16:09 | 22.37906 | -82.03568 | 21410 ft | 411 kts | 150° |
| 2026-05-05 16:09 | 22.35455 | -82.01965 | 21895 ft | 413 kts | 150° |
| 2026-05-05 16:09 | 22.32993 | -82.00356 | 22385 ft | 415 kts | 150° |
| 2026-05-05 16:10 | 22.30511 | -81.98734 | 22858 ft | 418 kts | 151° |
| 2026-05-05 16:10 | 22.28014 | -81.97103 | 23315 ft | 421 kts | 151° |
| 2026-05-05 16:10 | 22.25498 | -81.95461 | 23740 ft | 423 kts | 150° |
| 2026-05-05 16:10 | 22.22967 | -81.93808 | 24080 ft | 427 kts | 150° |
| 2026-05-05 16:11 | 22.20420 | -81.92146 | 24441 ft | 430 kts | 150° |
| 2026-05-05 16:11 | 22.12674 | -81.87098 | 25530 ft | 438 kts | 150° |
| 2026-05-05 16:12 | 22.10054 | -81.85392 | 25890 ft | 441 kts | 150° |
| 2026-05-05 16:12 | 22.04776 | -81.81958 | 26591 ft | 446 kts | 150° |
| 2026-05-05 16:13 | 21.96760 | -81.76747 | 27604 ft | 454 kts | 150° |
| 2026-05-05 16:13 | 21.94044 | -81.74984 | 27933 ft | 457 kts | 150° |
| 2026-05-05 16:13 | 21.91318 | -81.73214 | 28254 ft | 459 kts | 149° |
| 2026-05-05 16:14 | 21.85815 | -81.69644 | 28917 ft | 464 kts | 149° |
| 2026-05-05 16:14 | 21.80222 | -81.66020 | 29048 ft | 472 kts | 149° |
| 2026-05-05 16:15 | 21.68930 | -81.58711 | 29053 ft | 474 kts | 149° |
| 2026-05-05 16:16 | 21.57079 | -81.53147 | 29054 ft | 465 kts | 178° |
| 2026-05-05 16:17 | 21.47435 | -81.52357 | 29056 ft | 465 kts | 178° |
| 2026-05-05 16:18 | 21.37739 | -81.51669 | 29054 ft | 465 kts | 179° |
| 2026-05-05 16:19 | 21.28055 | -81.50989 | 29053 ft | 465 kts | 179° |
| 2026-05-05 16:19 | 21.18406 | -81.50312 | 29053 ft | 465 kts | 179° |
| 2026-05-05 16:20 | 21.05484 | -81.49408 | 29053 ft | 465 kts | 179° |
| 2026-05-05 16:22 | 20.89356 | -81.48282 | 29048 ft | 463 kts | 178° |
| 2026-05-05 16:22 | 20.82955 | -81.47835 | 28841 ft | 453 kts | 178° |
| 2026-05-05 16:23 | 20.76659 | -81.47397 | 27575 ft | 454 kts | 178° |
| 2026-05-05 16:23 | 20.73525 | -81.47178 | 27143 ft | 449 kts | 178° |
| 2026-05-05 16:23 | 20.67333 | -81.46747 | 26248 ft | 442 kts | 179° |
| 2026-05-05 16:24 | 20.64282 | -81.46535 | 25818 ft | 439 kts | 179° |
| 2026-05-05 16:24 | 20.61243 | -81.46324 | 25381 ft | 436 kts | 179° |
| 2026-05-05 16:24 | 20.55267 | -81.45908 | 24525 ft | 430 kts | 178° |
| 2026-05-05 16:25 | 20.52293 | -81.45702 | 24101 ft | 427 kts | 178° |
| 2026-05-05 16:25 | 20.46377 | -81.45291 | 23187 ft | 423 kts | 178° |
| 2026-05-05 16:25 | 20.43454 | -81.45088 | 22744 ft | 419 kts | 178° |
| 2026-05-05 16:26 | 20.37676 | -81.44688 | 21915 ft | 412 kts | 178° |
| 2026-05-05 16:26 | 20.31987 | -81.44294 | 21099 ft | 406 kts | 178° |
| 2026-05-05 16:27 | 20.29179 | -81.44099 | 20699 ft | 403 kts | 178° |
| 2026-05-05 16:27 | 20.26419 | -81.43908 | 20295 ft | 401 kts | 178° |
| 2026-05-05 16:27 | 20.23642 | -81.43716 | 19904 ft | 398 kts | 178° |
| 2026-05-05 16:27 | 20.20884 | -81.43525 | 19510 ft | 396 kts | 178° |
| 2026-05-05 16:28 | 20.18136 | -81.43335 | 19115 ft | 394 kts | 178° |
| 2026-05-05 16:28 | 20.15411 | -81.43147 | 18723 ft | 392 kts | 178° |
| 2026-05-05 16:28 | 20.12696 | -81.42959 | 18328 ft | 390 kts | 178° |
| 2026-05-05 16:28 | 20.09987 | -81.42772 | 17888 ft | 388 kts | 178° |
| 2026-05-05 16:29 | 20.07314 | -81.42588 | 17481 ft | 380 kts | 178° |
| 2026-05-05 16:29 | 20.04723 | -81.42409 | 17113 ft | 367 kts | 178° |
| 2026-05-05 16:29 | 20.02212 | -81.42236 | 16735 ft | 355 kts | 178° |
| 2026-05-05 16:29 | 19.99787 | -81.42068 | 16333 ft | 345 kts | 178° |
| 2026-05-05 16:30 | 19.97428 | -81.41906 | 15975 ft | 334 kts | 178° |
| 2026-05-05 16:30 | 19.95147 | -81.41749 | 15649 ft | 323 kts | 178° |
| 2026-05-05 16:30 | 19.92938 | -81.41596 | 15340 ft | 313 kts | 178° |
| 2026-05-05 16:30 | 19.90762 | -81.41447 | 15018 ft | 317 kts | 178° |
| 2026-05-05 16:31 | 19.88543 | -81.41294 | 14684 ft | 322 kts | 178° |
| 2026-05-05 16:31 | 19.86305 | -81.41139 | 14363 ft | 322 kts | 178° |
| 2026-05-05 16:31 | 19.84072 | -81.40986 | 14045 ft | 321 kts | 178° |
| 2026-05-05 16:31 | 19.81855 | -81.40833 | 13695 ft | 318 kts | 178° |
| 2026-05-05 16:32 | 19.79682 | -81.40684 | 13337 ft | 316 kts | 178° |
| 2026-05-05 16:32 | 19.77490 | -81.40533 | 13008 ft | 315 kts | 178° |
| 2026-05-05 16:32 | 19.75306 | -81.40383 | 12681 ft | 314 kts | 178° |
| 2026-05-05 16:32 | 19.73129 | -81.40233 | 12357 ft | 312 kts | 178° |
| 2026-05-05 16:33 | 19.70964 | -81.40084 | 12029 ft | 311 kts | 178° |
| 2026-05-05 16:33 | 19.68808 | -81.39936 | 11717 ft | 310 kts | 178° |
| 2026-05-05 16:33 | 19.66662 | -81.39789 | 11387 ft | 309 kts | 178° |
| 2026-05-05 16:33 | 19.64523 | -81.39642 | 11068 ft | 307 kts | 178° |
| 2026-05-05 16:34 | 19.62389 | -81.39496 | 10747 ft | 306 kts | 178° |
| 2026-05-05 16:34 | 19.60270 | -81.39582 | 10384 ft | 303 kts | 191° |
| 2026-05-05 16:34 | 19.58262 | -81.40161 | 10127 ft | 292 kts | 203° |
| 2026-05-05 16:34 | 19.56529 | -81.41092 | 10010 ft | 274 kts | 214° |
| 2026-05-05 16:35 | 19.55034 | -81.42294 | 9851 ft | 262 kts | 224° |
| 2026-05-05 16:35 | 19.53796 | -81.43711 | 9597 ft | 272 kts | 234° |
| 2026-05-05 16:35 | 19.52777 | -81.45408 | 9297 ft | 278 kts | 244° |
| 2026-05-05 16:35 | 19.52037 | -81.47323 | 8956 ft | 280 kts | 250° |
| 2026-05-05 16:36 | 19.51247 | -81.49214 | 8629 ft | 282 kts | 243° |
| 2026-05-05 16:36 | 19.50281 | -81.51028 | 8314 ft | 282 kts | 238° |
| 2026-05-05 16:36 | 19.49196 | -81.52751 | 8024 ft | 280 kts | 234° |
| 2026-05-05 16:36 | 19.47998 | -81.54371 | 7750 ft | 278 kts | 230° |
| 2026-05-05 16:37 | 19.46696 | -81.55876 | 7467 ft | 276 kts | 225° |
| 2026-05-05 16:37 | 19.45293 | -81.57267 | 7180 ft | 275 kts | 220° |
| 2026-05-05 16:37 | 19.43805 | -81.58532 | 6889 ft | 274 kts | 216° |
| 2026-05-05 16:37 | 19.42236 | -81.59670 | 6603 ft | 273 kts | 211° |
| 2026-05-05 16:38 | 19.40596 | -81.60675 | 6300 ft | 272 kts | 206° |
| 2026-05-05 16:38 | 19.38890 | -81.61543 | 5986 ft | 271 kts | 202° |
| 2026-05-05 16:38 | 19.37138 | -81.62267 | 5688 ft | 267 kts | 198° |
| 2026-05-05 16:38 | 19.35393 | -81.62835 | 5400 ft | 257 kts | 193° |
| 2026-05-05 16:39 | 19.33696 | -81.63251 | 5186 ft | 244 kts | 189° |
| 2026-05-05 16:39 | 19.32058 | -81.63532 | 4949 ft | 232 kts | 186° |
| 2026-05-05 16:39 | 19.30487 | -81.63691 | 4720 ft | 222 kts | 182° |
| 2026-05-05 16:39 | 19.28972 | -81.63773 | 4462 ft | 213 kts | 181° |
| 2026-05-05 16:40 | 19.27527 | -81.63844 | 4264 ft | 201 kts | 181° |
| 2026-05-05 16:40 | 19.26154 | -81.63921 | 4097 ft | 196 kts | 181° |
| 2026-05-05 16:40 | 19.24826 | -81.64019 | 3953 ft | 183 kts | 182° |
| 2026-05-05 16:40 | 19.23642 | -81.64112 | 3836 ft | 163 kts | 181° |
| 2026-05-05 16:41 | 19.22571 | -81.64126 | 3685 ft | 150 kts | 161° |
| 2026-05-05 16:41 | 19.21802 | -81.63487 | 3521 ft | 143 kts | 110° |
| 2026-05-05 16:41 | 19.21773 | -81.62456 | 3504 ft | 145 kts | 75° |
| 2026-05-05 16:41 | 19.22133 | -81.61409 | 3475 ft | 158 kts | 71° |
| 2026-05-05 16:42 | 19.22573 | -81.60317 | 3225 ft | 164 kts | 68° |
| 2026-05-05 16:42 | 19.23048 | -81.59221 | 2999 ft | 163 kts | 66° |
| 2026-05-05 16:42 | 19.23518 | -81.58131 | 2848 ft | 162 kts | 68° |
| 2026-05-05 16:42 | 19.23923 | -81.57093 | 2746 ft | 146 kts | 70° |
| 2026-05-05 16:43 | 19.24290 | -81.56105 | 2670 ft | 144 kts | 72° |
| 2026-05-05 16:43 | 19.24628 | -81.55121 | 2405 ft | 141 kts | 71° |
| 2026-05-05 16:43 | 19.24949 | -81.54147 | 2218 ft | 140 kts | 73° |
| 2026-05-05 16:43 | 19.25209 | -81.53155 | 1961 ft | 139 kts | 74° |
| 2026-05-05 16:44 | 19.25466 | -81.52172 | 1766 ft | 139 kts | 75° |
| 2026-05-05 16:44 | 19.25692 | -81.51181 | 1693 ft | 138 kts | 77° |
| 2026-05-05 16:44 | 19.25903 | -81.50180 | 1572 ft | 139 kts | 78° |
| 2026-05-05 16:44 | 19.26088 | -81.49195 | 1426 ft | 138 kts | 78° |
| 2026-05-05 16:45 | 19.26306 | -81.48201 | 1317 ft | 139 kts | 76° |
| 2026-05-05 16:45 | 19.26548 | -81.47201 | 1243 ft | 141 kts | 74° |
| 2026-05-05 16:45 | 19.26820 | -81.46209 | 1125 ft | 139 kts | 73° |
| 2026-05-05 16:45 | 19.27088 | -81.45224 | 1056 ft | 139 kts | 74° |
| 2026-05-05 16:46 | 19.27345 | -81.44238 | 951 ft | 139 kts | 75° |
| 2026-05-05 16:46 | 19.27572 | -81.43250 | 857 ft | 138 kts | 77° |
| 2026-05-05 16:46 | 19.27770 | -81.42249 | 775 ft | 139 kts | 76° |
| 2026-05-05 16:46 | 19.27987 | -81.41246 | 648 ft | 140 kts | 76° |
| 2026-05-05 16:47 | 19.28209 | -81.40253 | 530 ft | 139 kts | 75° |
| 2026-05-05 16:47 | 19.28454 | -81.39254 | 403 ft | 141 kts | 75° |
| 2026-05-05 16:47 | 19.28678 | -81.38260 | 284 ft | 143 kts | 73° |
| 2026-05-05 16:47 | 19.28927 | -81.37254 | 122 ft | 139 kts | 73° |
| 2026-05-05 16:48 | 19.29157 | -81.36300 | 20 ft | 121 kts | 76° |
| 2026-05-05 16:48 | 19.29305 | -81.35672 | 18 ft | 39 kts | 76° |
| 2026-05-05 16:48 | 19.29319 | -81.35620 | 19 ft | 7 kts | 76° |
| 2026-05-05 16:48 | 19.29339 | -81.35575 | 18 ft | 5 kts | 29° |
| 2026-05-05 16:49 | 19.29365 | -81.35570 | 17 ft | 6 kts | 356° |
| 2026-05-05 16:49 | 19.29408 | -81.35581 | 18 ft | 7 kts | 345° |
| 2026-05-05 16:49 | 19.29458 | -81.35602 | 18 ft | 8 kts | 315° |
| 2026-05-05 16:49 | 19.29466 | -81.35659 | 18 ft | 4 kts | 258° |
| 2026-05-05 16:50 | 19.29486 | -81.35682 | 18 ft | 4 kts | 341° |
| 2026-05-05 16:50 | 19.29510 | -81.35689 | 18 ft | 6 kts | 347° |
| 2026-05-05 16:50 | 19.29514 | -81.35690 | 18 ft | 0 kts | 347° |